createdAt,value
2017-05-24T00:00:21.299Z,10.14
2017-05-24T00:02:50.300Z,10.40
2017-05-24T00:05:19.368Z,15.62
2017-05-24T00:07:48.371Z,13.30
2017-05-24T00:10:17.377Z,13.28
2017-05-24T00:13:03.333Z,11.44
2017-05-24T00:15:32.352Z,10.40
2017-05-24T00:18:03.220Z,12.44
2017-05-24T00:20:32.242Z,29.40
2017-05-24T00:23:01.255Z,10.00
2017-05-24T00:25:30.318Z,11.36
2017-05-24T00:27:59.368Z,13.74
2017-05-24T00:30:28.391Z,11.90
2017-05-24T00:33:03.813Z,14.08
2017-05-24T00:35:32.823Z,14.22
2017-05-24T00:38:03.454Z,13.86
2017-05-24T00:40:32.523Z,17.28
2017-05-24T00:43:01.540Z,14.98
2017-05-24T00:45:30.587Z,13.50
2017-05-24T00:47:59.653Z,12.42
2017-05-24T00:50:28.694Z,15.04
2017-05-24T00:52:57.748Z,16.36
2017-05-24T00:55:26.796Z,15.90
2017-05-24T00:57:55.861Z,18.46
2017-05-24T01:00:47.089Z,13.70
2017-05-24T01:06:16.939Z,8.68
2017-05-24T01:08:45.193Z,14.30
2017-05-24T01:11:14.207Z,19.66
2017-05-24T01:14:02.568Z,19.26
2017-05-24T01:16:31.586Z,18.68
2017-05-24T01:19:00.602Z,20.38
2017-05-24T01:21:29.676Z,19.80
2017-05-24T01:23:58.703Z,11.06
2017-05-24T01:26:27.728Z,17.50
2017-05-24T01:29:02.875Z,11.40
2017-05-24T01:31:31.918Z,17.30
2017-05-24T01:34:02.799Z,13.64
2017-05-24T01:37:02.354Z,17.88
2017-05-24T01:39:31.383Z,14.94
2017-05-24T01:42:00.427Z,19.82
2017-05-24T01:44:29.519Z,17.60
2017-05-24T01:46:58.527Z,13.02
2017-05-24T01:52:28.103Z,10.88
2017-05-24T01:54:57.118Z,16.86
2017-05-24T01:57:26.154Z,17.42
2017-05-24T02:00:03.103Z,24.50
2017-05-24T02:02:32.142Z,17.08
2017-05-24T02:05:01.202Z,26.32
2017-05-24T02:07:30.275Z,27.32
2017-05-24T02:10:03.027Z,23.04
2017-05-24T02:13:02.590Z,30.42
2017-05-24T02:16:01.435Z,29.42
2017-05-24T02:18:30.518Z,23.64
2017-05-24T02:20:59.547Z,22.08
2017-05-24T02:23:28.570Z,28.84
2017-05-24T02:25:57.635Z,33.42
2017-05-24T02:28:26.665Z,20.56
2017-05-24T02:30:55.727Z,32.06
2017-05-24T02:33:24.758Z,33.30
2017-05-24T02:35:53.774Z,32.12
2017-05-24T02:41:24.235Z,32.10
2017-05-24T02:43:53.272Z,37.56
2017-05-24T02:46:22.341Z,30.26
2017-05-24T02:49:03.996Z,28.58
2017-05-24T02:51:33.064Z,30.58
2017-05-24T02:54:02.083Z,29.78
2017-05-24T02:56:31.121Z,22.38
2017-05-24T02:59:00.218Z,25.96
2017-05-24T03:01:29.216Z,25.30
2017-05-24T03:03:58.212Z,19.08
2017-05-24T03:12:48.186Z,19.90
2017-05-24T03:15:17.189Z,17.60
2017-05-24T03:17:46.194Z,18.30
2017-05-24T03:23:15.805Z,26.34
2017-05-24T03:26:04.808Z,23.96
2017-05-24T03:28:33.897Z,24.80
2017-05-24T03:31:02.924Z,27.16
2017-05-24T03:34:01.587Z,34.26
2017-05-24T03:37:01.238Z,30.64
2017-05-24T03:39:30.299Z,33.06
2017-05-24T03:41:59.313Z,33.62
2017-05-24T03:44:28.374Z,35.28
2017-05-24T03:46:57.407Z,36.06
2017-05-24T03:52:27.141Z,37.34
2017-05-24T03:54:56.171Z,35.28
2017-05-24T03:57:25.234Z,38.26
2017-05-24T03:59:54.249Z,36.74
2017-05-24T04:02:23.293Z,42.30
2017-05-24T04:04:52.324Z,39.98
2017-05-24T04:13:23.298Z,43.72
2017-05-24T04:16:02.834Z,32.96
2017-05-24T04:18:31.890Z,40.30
2017-05-24T04:21:04.498Z,37.20
2017-05-24T04:23:33.582Z,35.76
2017-05-24T04:26:02.604Z,35.62
2017-05-24T04:28:31.614Z,32.90
2017-05-24T04:31:04.388Z,33.02
2017-05-24T04:33:33.411Z,29.14
2017-05-24T04:36:02.969Z,16.78
2017-05-24T04:38:31.993Z,20.46
2017-05-24T04:41:01.011Z,19.16
2017-05-24T04:43:30.060Z,20.36
2017-05-24T04:45:59.092Z,16.04
2017-05-24T04:51:29.666Z,15.18
2017-05-24T04:53:58.721Z,18.22
2017-05-24T04:56:27.805Z,18.44
2017-05-24T04:58:56.815Z,16.60
2017-05-24T05:01:25.833Z,14.04
2017-05-24T05:03:54.880Z,14.22
2017-05-24T05:06:23.894Z,15.58
2017-05-24T05:08:52.953Z,15.90
2017-05-24T05:14:23.161Z,17.70
2017-05-24T05:17:02.843Z,12.26
2017-05-24T05:19:31.862Z,15.58
2017-05-24T05:22:00.858Z,14.70
2017-05-24T05:27:31.088Z,18.82
2017-05-24T05:30:03.918Z,11.36
2017-05-24T05:32:32.950Z,13.50
2017-05-24T05:35:03.347Z,9.50
2017-05-24T05:37:32.418Z,10.46
2017-05-24T05:43:02.636Z,13.76
2017-05-24T05:45:31.682Z,11.54
2017-05-24T05:48:00.695Z,15.28
2017-05-24T05:50:29.761Z,11.72
2017-05-24T05:52:59.333Z,17.68
2017-05-24T05:55:28.369Z,13.26
2017-05-24T05:57:57.430Z,13.16
2017-05-24T06:03:27.667Z,15.02
2017-05-24T06:05:56.692Z,13.04
2017-05-24T06:08:25.719Z,16.96
2017-05-24T06:10:54.841Z,23.32
2017-05-24T06:16:24.319Z,15.08
2017-05-24T06:19:03.792Z,16.16
2017-05-24T06:22:02.331Z,15.60
2017-05-24T06:28:02.096Z,14.36
2017-05-24T06:30:31.152Z,16.36
2017-05-24T06:33:04.018Z,14.38
2017-05-24T06:36:01.549Z,15.28
2017-05-24T06:38:30.567Z,13.82
2017-05-24T06:41:03.302Z,13.32
2017-05-24T06:44:02.612Z,17.02
2017-05-24T06:49:10.157Z,13.58
2017-05-24T06:52:02.772Z,12.30
2017-05-24T06:55:01.951Z,12.80
2017-05-24T07:01:01.746Z,13.98
2017-05-24T07:03:30.768Z,13.22
2017-05-24T07:05:59.823Z,11.88
2017-05-24T07:08:59.234Z,15.76
2017-05-24T07:11:28.295Z,18.08
2017-05-24T07:13:57.303Z,13.90
2017-05-24T07:16:26.303Z,16.18
2017-05-24T07:19:03.460Z,12.82
2017-05-24T07:22:01.986Z,19.90
2017-05-24T07:33:10.474Z,15.36
2017-05-24T07:35:39.506Z,14.72
2017-05-24T07:38:08.512Z,15.78
2017-05-24T07:41:03.590Z,16.74
2017-05-24T07:43:32.590Z,16.14
2017-05-24T07:46:01.610Z,17.50
2017-05-24T07:52:01.819Z,13.22
2017-05-24T08:01:02.129Z,14.70
2017-05-24T08:03:31.306Z,12.64
2017-05-24T08:06:06.696Z,15.24
2017-05-24T08:08:35.717Z,9.72
2017-05-24T08:11:04.739Z,13.22
2017-05-24T08:13:47.009Z,12.70
2017-05-24T08:16:16.005Z,12.14
2017-05-24T08:18:45.024Z,11.36
2017-05-24T08:24:15.449Z,11.18
2017-05-24T08:26:44.444Z,13.30
2017-05-24T08:29:37.390Z,11.40
2017-05-24T08:32:06.431Z,10.84
2017-05-24T08:34:35.444Z,11.34
2017-05-24T08:37:04.452Z,12.76
2017-05-24T08:39:33.514Z,13.46
2017-05-24T08:42:02.558Z,12.86
2017-05-24T08:44:31.608Z,10.76
2017-05-24T08:47:00.612Z,9.74
2017-05-24T08:49:29.642Z,10.48
2017-05-24T08:51:58.706Z,12.84
2017-05-24T08:54:27.705Z,7.58
2017-05-24T08:59:57.380Z,10.46
2017-05-24T09:05:27.123Z,8.22
2017-05-24T09:07:56.165Z,7.58
2017-05-24T09:13:26.371Z,10.24
2017-05-24T09:15:55.389Z,10.44
2017-05-24T09:18:24.424Z,12.82
2017-05-24T09:20:53.422Z,10.56
2017-05-24T09:23:22.466Z,8.64
2017-05-24T09:25:51.495Z,14.28
2017-05-24T09:28:20.503Z,14.34
2017-05-24T09:31:02.881Z,11.26
2017-05-24T09:33:31.897Z,11.30
2017-05-24T09:36:04.816Z,13.24
2017-05-24T09:39:00.362Z,13.32
2017-05-24T09:41:29.409Z,10.60
2017-05-24T09:43:58.424Z,9.90
2017-05-24T09:46:27.450Z,11.24
2017-05-24T09:49:03.328Z,10.86
2017-05-24T09:51:32.346Z,10.54
2017-05-24T09:54:01.384Z,8.58
2017-05-24T09:56:30.427Z,12.42
2017-05-24T09:59:05.322Z,13.64
2017-05-24T10:01:34.421Z,11.02
2017-05-24T10:04:03.460Z,12.14
2017-05-24T10:06:32.495Z,8.90
2017-05-24T10:09:01.557Z,11.46
2017-05-24T10:14:31.916Z,10.24
2017-05-24T10:17:01.014Z,8.26
2017-05-24T10:19:30.047Z,11.40
2017-05-24T10:21:59.092Z,15.74
2017-05-24T10:24:28.102Z,10.26
2017-05-24T10:27:03.422Z,9.62
2017-05-24T10:45:03.856Z,8.82
2017-05-24T10:48:03.139Z,12.86
2017-05-24T10:54:02.893Z,10.78
2017-05-24T10:56:38.232Z,8.10
2017-05-24T11:05:08.457Z,6.14
2017-05-24T11:08:02.857Z,8.60
2017-05-24T11:14:02.125Z,9.82
2017-05-24T11:16:37.877Z,13.62
2017-05-24T11:22:07.448Z,6.94
2017-05-24T11:25:02.861Z,7.28
2017-05-24T11:27:31.905Z,8.44
2017-05-24T11:30:04.726Z,6.64
2017-05-24T11:32:37.564Z,11.66
2017-05-24T11:35:06.680Z,19.98
2017-05-24T11:37:35.683Z,8.68
2017-05-24T11:43:02.925Z,14.38
2017-05-24T11:45:31.912Z,9.64
2017-05-24T11:48:00.908Z,8.40
2017-05-24T11:53:30.361Z,8.08
2017-05-24T11:56:06.026Z,8.82
2017-05-24T11:59:02.635Z,21.70
2017-05-24T12:01:31.654Z,10.12
2017-05-24T12:04:00.668Z,9.92
2017-05-24T12:09:30.803Z,8.50
2017-05-24T12:12:05.535Z,7.70
2017-05-24T12:15:02.371Z,5.60
2017-05-24T12:17:31.378Z,11.54
2017-05-24T12:23:03.268Z,10.24
2017-05-24T12:25:32.326Z,12.92
2017-05-24T12:28:01.342Z,11.80
2017-05-24T12:33:31.252Z,8.64
2017-05-24T12:36:06.026Z,8.52
2017-05-24T12:39:00.692Z,8.50
2017-05-24T12:41:29.697Z,12.88
2017-05-24T12:43:58.760Z,10.32
2017-05-24T12:49:29.102Z,10.76
2017-05-24T12:51:58.095Z,7.50
2017-05-24T12:57:28.539Z,11.88
2017-05-24T12:59:57.563Z,9.80
2017-05-24T13:02:26.617Z,6.40
2017-05-24T13:05:04.521Z,7.74
2017-05-24T13:07:33.579Z,7.36
2017-05-24T13:13:01.919Z,8.82
2017-05-24T13:15:30.923Z,6.74
2017-05-24T13:17:59.975Z,11.18
2017-05-24T13:20:29.039Z,6.96
2017-05-24T13:22:58.155Z,7.12
2017-05-24T13:25:27.153Z,12.12
2017-05-24T13:27:56.203Z,7.24
2017-05-24T13:33:26.284Z,7.30
2017-05-24T13:35:55.283Z,14.38
2017-05-24T13:38:24.321Z,10.50
2017-05-24T13:41:03.867Z,9.44
2017-05-24T13:43:33.086Z,10.38
2017-05-24T13:46:02.117Z,12.42
2017-05-24T13:52:02.453Z,8.22
2017-05-24T13:57:32.130Z,9.92
2017-05-24T14:00:01.133Z,10.14
2017-05-24T14:02:30.119Z,9.36
2017-05-24T14:05:05.243Z,9.22
2017-05-24T14:07:34.245Z,8.26
2017-05-24T14:13:07.669Z,8.10
2017-05-24T14:15:36.686Z,10.20
2017-05-24T14:18:05.722Z,14.72
2017-05-24T14:20:34.741Z,6.44
2017-05-24T14:25:51.908Z,8.20
2017-05-24T15:08:02.210Z,10.60
2017-05-24T15:13:32.017Z,8.00
2017-05-24T15:16:04.793Z,11.22
2017-05-24T15:19:02.189Z,11.24
2017-05-24T15:40:02.181Z,12.62
2017-05-24T15:48:16.603Z,7.34
2017-05-24T15:50:49.440Z,7.82
2017-05-24T15:56:08.754Z,6.32
2017-05-24T15:59:04.266Z,9.40
2017-05-24T16:02:00.182Z,11.82
2017-05-24T16:19:29.278Z,11.72
2017-05-24T16:21:58.291Z,7.14
2017-05-24T16:33:30.289Z,8.72
2017-05-24T16:36:05.958Z,10.44
2017-05-24T16:39:02.680Z,15.00
2017-05-24T16:45:02.236Z,14.60
2017-05-24T16:51:02.073Z,10.50
2017-05-24T16:53:31.177Z,11.76
2017-05-24T16:56:04.025Z,12.64
2017-05-24T16:59:03.317Z,16.84
2017-05-24T17:01:51.515Z,10.92
2017-05-24T17:07:21.609Z,16.98
2017-05-24T17:23:02.080Z,14.68
2017-05-24T17:28:52.278Z,8.74
2017-05-24T17:31:21.304Z,11.00
2017-05-24T17:33:50.348Z,12.48
2017-05-24T17:36:19.409Z,15.22
2017-05-24T17:38:48.478Z,12.00
2017-05-24T17:41:17.554Z,14.32
2017-05-24T17:43:46.585Z,20.76
2017-05-24T17:46:15.605Z,15.38
2017-05-24T17:48:44.672Z,13.04
2017-05-24T17:51:13.724Z,14.24
2017-05-24T17:53:42.746Z,10.32
2017-05-24T17:56:11.821Z,9.36
2017-05-24T17:59:04.331Z,15.68
2017-05-24T18:02:03.704Z,18.46
2017-05-24T18:04:32.774Z,15.12
2017-05-24T18:07:01.818Z,15.94
2017-05-24T18:09:30.902Z,18.78
2017-05-24T18:11:59.964Z,8.78
2017-05-24T18:14:28.972Z,16.58
2017-05-24T18:16:58.097Z,17.34
2017-05-24T18:19:33.109Z,18.34
2017-05-24T18:22:05.057Z,17.66
2017-05-24T18:24:34.142Z,18.02
2017-05-24T18:27:04.489Z,10.62
2017-05-24T18:29:33.573Z,16.00
2017-05-24T18:32:04.051Z,19.84
2017-05-24T18:34:33.106Z,17.72
2017-05-24T18:37:02.179Z,20.28
2017-05-24T18:39:31.212Z,17.64
2017-05-24T18:42:04.130Z,20.08
2017-05-24T18:44:33.155Z,25.00
2017-05-24T18:47:04.477Z,22.66
2017-05-24T18:50:03.739Z,30.38
2017-05-24T18:52:32.801Z,18.88
2017-05-24T18:55:05.377Z,17.08
2017-05-24T18:58:02.733Z,21.60
2017-05-24T19:07:03.130Z,18.18
2017-05-24T19:13:02.736Z,19.88
2017-05-24T19:22:02.754Z,23.90
2017-05-24T19:24:31.852Z,22.40
2017-05-24T19:27:04.526Z,20.78
2017-05-24T19:30:03.989Z,18.06
2017-05-24T19:33:03.644Z,26.64
2017-05-24T19:35:32.723Z,20.28
2017-05-24T19:41:03.177Z,19.24
2017-05-24T19:44:02.590Z,24.76
2017-05-24T19:46:31.619Z,28.50
2017-05-24T19:49:00.686Z,26.24
2017-05-24T19:54:30.965Z,26.70
2017-05-24T19:57:06.459Z,23.34
2017-05-24T19:59:35.549Z,22.68
2017-05-24T20:02:04.577Z,23.88
2017-05-24T20:04:33.631Z,25.26
2017-05-24T20:07:05.803Z,22.06
2017-05-24T20:09:34.827Z,23.22
2017-05-24T20:12:04.545Z,23.66
2017-05-24T20:15:03.979Z,15.58
2017-05-24T20:17:32.986Z,23.70
2017-05-24T20:20:05.803Z,14.22
2017-05-24T20:22:34.823Z,19.26
2017-05-24T20:25:04.261Z,24.02
2017-05-24T20:27:34.079Z,14.50
2017-05-24T20:30:03.151Z,27.00
2017-05-24T20:32:32.207Z,18.60
2017-05-24T20:35:01.247Z,19.92
2017-05-24T20:40:31.677Z,14.92
2017-05-24T20:43:04.486Z,18.56
2017-05-24T20:45:33.557Z,20.92
2017-05-24T20:48:04.245Z,20.42
2017-05-24T20:51:03.423Z,19.22
2017-05-24T20:54:03.166Z,24.70
2017-05-24T20:56:34.963Z,22.64
2017-05-24T21:01:42.558Z,22.66
2017-05-24T21:04:11.646Z,22.68
2017-05-24T21:07:04.599Z,28.88
2017-05-24T21:09:33.683Z,22.94
2017-05-24T21:12:04.044Z,23.30
2017-05-24T21:14:33.098Z,18.48
2017-05-24T21:17:05.601Z,15.84
2017-05-24T21:19:34.677Z,18.48
2017-05-24T21:22:04.015Z,26.24
2017-05-24T21:24:33.078Z,19.82
2017-05-24T21:27:02.964Z,20.00
2017-05-24T21:29:33.499Z,21.04
2017-05-24T21:32:04.282Z,17.46
2017-05-24T21:34:33.342Z,20.68
2017-05-24T21:37:05.409Z,18.80
2017-05-24T21:39:34.461Z,17.46
2017-05-24T21:42:03.542Z,18.16
2017-05-24T21:47:33.157Z,18.70
2017-05-24T21:50:05.870Z,13.40
2017-05-24T21:55:13.690Z,25.30
2017-05-24T21:57:42.753Z,15.54
2017-05-24T22:00:11.814Z,15.24
2017-05-24T22:02:40.888Z,13.56
2017-05-24T22:05:09.967Z,13.72
2017-05-24T22:08:04.728Z,18.32
2017-05-24T22:10:33.805Z,16.60
2017-05-24T22:13:04.468Z,18.00
2017-05-24T22:15:33.537Z,20.82
2017-05-24T22:18:02.573Z,16.50
2017-05-24T22:20:31.634Z,23.40
2017-05-24T22:23:00.682Z,15.54
2017-05-24T22:25:29.760Z,17.86
2017-05-24T22:27:58.791Z,16.18
2017-05-24T22:30:27.823Z,13.82
2017-05-24T22:32:56.873Z,26.06
2017-05-24T22:38:27.439Z,17.64
2017-05-24T22:40:56.501Z,17.56
2017-05-24T22:43:25.562Z,23.28
2017-05-24T22:45:54.565Z,14.42
2017-05-24T22:48:23.565Z,17.50
2017-05-24T22:50:52.629Z,20.36
2017-05-24T22:53:21.634Z,21.94
2017-05-24T22:56:03.963Z,18.54
2017-05-24T22:58:32.975Z,25.40
2017-05-24T23:01:01.988Z,21.80
2017-05-24T23:03:31.031Z,22.22
2017-05-24T23:06:00.055Z,18.52
2017-05-24T23:08:29.097Z,19.44
2017-05-24T23:10:58.158Z,15.32
2017-05-24T23:13:27.171Z,17.70
2017-05-24T23:15:56.207Z,15.78
2017-05-24T23:18:25.263Z,28.30
2017-05-24T23:20:54.294Z,20.50
2017-05-24T23:23:23.359Z,13.52
2017-05-24T23:25:52.367Z,11.08
2017-05-24T23:28:21.383Z,17.22
2017-05-24T23:31:03.479Z,20.62
2017-05-24T23:33:32.489Z,21.74
2017-05-24T23:36:01.554Z,14.64
2017-05-24T23:38:30.584Z,22.02
2017-05-24T23:40:59.601Z,22.66
2017-05-24T23:43:28.651Z,22.00
2017-05-24T23:45:57.690Z,21.86
2017-05-24T23:48:26.764Z,22.14
2017-05-24T23:51:05.595Z,23.40
2017-05-24T23:53:34.645Z,18.62
2017-05-24T23:56:03.688Z,19.72
2017-05-24T23:58:32.714Z,22.72
